createdAt,value
2023-03-31T00:00:57.886Z,98327.00
2023-03-31T00:02:31.258Z,98320.00
2023-03-31T00:04:05.466Z,98325.00
2023-03-31T00:05:38.955Z,98325.00
2023-03-31T00:07:13.242Z,98313.00
2023-03-31T00:08:47.180Z,98298.00
2023-03-31T00:10:20.431Z,98307.00
2023-03-31T00:11:53.978Z,98304.00
2023-03-31T00:13:27.254Z,98303.00
2023-03-31T00:15:00.610Z,98308.00
2023-03-31T00:16:35.234Z,98300.00
2023-03-31T00:18:07.675Z,98296.00
2023-03-31T00:19:42.152Z,98289.00
2023-03-31T00:21:25.085Z,98281.00
2023-03-31T00:22:58.897Z,98278.00
2023-03-31T00:24:33.599Z,98272.00
2023-03-31T00:26:06.967Z,98268.00
2023-03-31T00:27:44.045Z,98263.00
2023-03-31T00:29:16.352Z,98268.00
2023-03-31T00:30:49.848Z,98266.00
2023-03-31T00:32:24.338Z,98254.00
2023-03-31T00:33:58.948Z,98255.00
2023-03-31T00:35:33.265Z,98251.00
2023-03-31T00:37:06.376Z,98258.00
2023-03-31T00:38:39.623Z,98251.00
2023-03-31T00:40:13.177Z,98244.00
2023-03-31T00:41:46.899Z,98243.00
2023-03-31T00:43:30.186Z,98234.00
2023-03-31T00:45:27.208Z,98239.00
2023-03-31T00:47:07.878Z,98231.00
2023-03-31T00:48:49.451Z,98240.00
2023-03-31T00:50:28.846Z,98223.00
2023-03-31T00:52:07.020Z,98230.00
2023-03-31T00:53:40.926Z,98224.00
2023-03-31T00:55:19.177Z,98233.00
2023-03-31T00:56:58.475Z,98232.00
2023-03-31T00:58:33.432Z,98237.00
2023-03-31T01:00:14.429Z,98230.00
2023-03-31T01:01:52.870Z,98230.00
2023-03-31T01:03:27.196Z,98221.00
2023-03-31T01:05:02.120Z,98216.00
2023-03-31T01:06:36.231Z,98218.00
2023-03-31T01:08:12.158Z,98215.00
2023-03-31T01:09:50.489Z,98209.00
2023-03-31T01:11:30.651Z,98211.00
2023-03-31T01:13:05.771Z,98211.00
2023-03-31T01:14:39.568Z,98213.00
2023-03-31T01:16:13.474Z,98200.00
2023-03-31T01:17:51.300Z,98198.00
2023-03-31T01:19:46.245Z,98198.00
2023-03-31T01:22:15.757Z,98185.00
2023-03-31T01:24:35.829Z,98185.00
2023-03-31T01:26:47.171Z,98189.00
2023-03-31T01:28:34.562Z,98183.00
2023-03-31T01:30:44.517Z,98171.00
2023-03-31T01:33:03.421Z,98167.00
2023-03-31T01:35:25.957Z,98163.00
2023-03-31T01:37:31.724Z,98157.00
2023-03-31T01:39:58.168Z,98155.00
2023-03-31T01:41:49.690Z,98158.00
2023-03-31T01:43:30.553Z,98146.00
2023-03-31T01:45:19.898Z,98139.00
2023-03-31T01:46:59.487Z,98132.00
2023-03-31T01:48:48.634Z,98142.00
2023-03-31T01:50:29.642Z,98146.00
2023-03-31T01:52:13.864Z,98141.00
2023-03-31T01:53:55.909Z,98125.00
2023-03-31T01:55:38.002Z,98132.00
2023-03-31T01:57:18.241Z,98117.00
2023-03-31T01:58:57.092Z,98117.00
2023-03-31T02:00:35.359Z,98107.00
2023-03-31T02:02:16.457Z,98107.00
2023-03-31T02:03:57.759Z,98105.00
2023-03-31T02:05:36.723Z,98101.00
2023-03-31T02:07:17.425Z,98100.00
2023-03-31T02:08:58.290Z,98092.00
2023-03-31T02:10:35.958Z,98085.00
2023-03-31T02:12:12.429Z,98083.00
2023-03-31T02:13:50.074Z,98081.00
2023-03-31T02:15:29.405Z,98082.00
2023-03-31T02:17:05.942Z,98077.00
2023-03-31T02:18:41.971Z,98073.00
2023-03-31T02:20:19.593Z,98066.00
2023-03-31T02:21:54.734Z,98069.00
2023-03-31T02:23:31.888Z,98078.00
2023-03-31T02:25:11.554Z,98057.00
2023-03-31T02:26:54.411Z,98055.00
2023-03-31T02:28:28.950Z,98055.00
2023-03-31T02:30:03.894Z,98050.00
2023-03-31T02:31:44.890Z,98044.00
2023-03-31T02:33:18.040Z,98046.00
2023-03-31T02:34:51.408Z,98045.00
2023-03-31T02:36:25.485Z,98046.00
2023-03-31T02:37:59.470Z,98043.00
2023-03-31T02:39:37.731Z,98037.00
2023-03-31T02:41:11.439Z,98027.00
2023-03-31T02:42:46.326Z,98018.00
2023-03-31T02:44:19.394Z,98023.00
2023-03-31T02:45:53.074Z,98030.00
2023-03-31T02:47:26.626Z,98029.00
2023-03-31T02:49:03.341Z,98021.00
2023-03-31T02:50:54.957Z,98025.00
2023-03-31T02:52:52.317Z,98017.00
2023-03-31T02:54:46.510Z,98004.00
2023-03-31T02:56:41.018Z,97999.00
2023-03-31T02:58:58.923Z,97986.00
2023-03-31T03:00:56.204Z,97982.00
2023-03-31T03:02:46.418Z,97970.00
2023-03-31T03:04:42.258Z,97970.00
2023-03-31T03:06:37.501Z,97955.00
2023-03-31T03:08:29.757Z,97948.00
2023-03-31T03:10:10.041Z,97943.00
2023-03-31T03:11:53.862Z,97931.00
2023-03-31T03:13:36.558Z,97925.00
2023-03-31T03:15:15.820Z,97926.00
2023-03-31T03:16:57.657Z,97922.00
2023-03-31T03:18:31.009Z,97914.00
2023-03-31T03:20:09.140Z,97914.00
2023-03-31T03:21:42.255Z,97920.00
2023-03-31T03:23:15.636Z,97907.00
2023-03-31T03:24:49.409Z,97920.00
2023-03-31T03:26:23.780Z,97911.00
2023-03-31T03:27:57.383Z,97909.00
2023-03-31T03:29:31.894Z,97901.00
2023-03-31T03:31:05.115Z,97892.00
2023-03-31T03:32:38.563Z,97890.00
2023-03-31T03:34:11.875Z,97889.00
2023-03-31T03:35:45.088Z,97878.00
2023-03-31T03:37:18.247Z,97877.00
2023-03-31T03:38:51.277Z,97870.00
2023-03-31T03:40:24.336Z,97878.00
2023-03-31T03:41:57.351Z,97871.00
2023-03-31T03:43:30.791Z,97861.00
2023-03-31T03:45:06.436Z,97866.00
2023-03-31T03:46:38.813Z,97864.00
2023-03-31T03:48:12.127Z,97856.00
2023-03-31T03:49:45.284Z,97839.00
2023-03-31T03:51:18.431Z,97836.00
2023-03-31T03:52:51.543Z,97829.00
2023-03-31T03:54:23.686Z,97831.00
2023-03-31T03:55:56.799Z,97832.00
2023-03-31T03:57:29.949Z,97827.00
2023-03-31T03:59:03.281Z,97833.00
2023-03-31T04:00:37.815Z,97839.00
2023-03-31T04:02:10.990Z,97841.00
2023-03-31T04:03:43.152Z,97841.00
2023-03-31T04:05:16.375Z,97835.00
2023-03-31T04:06:49.445Z,97823.00
2023-03-31T04:08:22.602Z,97807.00
2023-03-31T04:09:55.717Z,97790.00
2023-03-31T04:11:28.588Z,97793.00
2023-03-31T04:13:01.764Z,97808.00
2023-03-31T04:14:34.891Z,97809.00
2023-03-31T04:16:09.842Z,97801.00
2023-03-31T04:17:50.745Z,97798.00
2023-03-31T04:19:26.185Z,97798.00
2023-03-31T04:21:04.797Z,97794.00
2023-03-31T04:22:41.441Z,97791.00
2023-03-31T04:24:15.896Z,97779.00
2023-03-31T04:25:50.094Z,97783.00
2023-03-31T04:27:27.004Z,97784.00
2023-03-31T04:29:00.932Z,97788.00
2023-03-31T04:30:34.506Z,97788.00
2023-03-31T04:32:09.132Z,97790.00
2023-03-31T04:33:41.739Z,97785.00
2023-03-31T04:35:15.265Z,97784.00
2023-03-31T04:36:49.090Z,97776.00
2023-03-31T04:38:24.551Z,97759.00
2023-03-31T04:39:58.893Z,97771.00
2023-03-31T04:41:31.887Z,97766.00
2023-03-31T04:43:05.047Z,97771.00
2023-03-31T04:44:38.086Z,97768.00
2023-03-31T04:46:11.443Z,97766.00
2023-03-31T04:47:45.852Z,97757.00
2023-03-31T04:49:19.163Z,97758.00
2023-03-31T04:50:52.203Z,97752.00
2023-03-31T04:52:25.311Z,97757.00
2023-03-31T04:53:58.339Z,97740.00
2023-03-31T04:55:31.075Z,97737.00
2023-03-31T04:57:04.642Z,97737.00
2023-03-31T04:58:36.827Z,97734.00
2023-03-31T05:00:11.404Z,97726.00
2023-03-31T05:01:46.025Z,97734.00
2023-03-31T05:03:21.453Z,97725.00
2023-03-31T05:04:54.579Z,97718.00
2023-03-31T05:06:28.746Z,97726.00
2023-03-31T05:08:01.920Z,97715.00
2023-03-31T05:09:35.143Z,97702.00
2023-03-31T05:11:08.284Z,97705.00
2023-03-31T05:12:41.455Z,97699.00
2023-03-31T05:14:14.571Z,97703.00
2023-03-31T05:15:50.584Z,97688.00
2023-03-31T05:17:23.776Z,97686.00
2023-03-31T05:18:58.183Z,97682.00
2023-03-31T05:20:31.524Z,97673.00
2023-03-31T05:22:04.570Z,97685.00
2023-03-31T05:23:37.659Z,97672.00
2023-03-31T05:25:14.394Z,97661.00
2023-03-31T05:26:52.375Z,97658.00
2023-03-31T05:28:25.510Z,97644.00
2023-03-31T05:29:58.844Z,97631.00
2023-03-31T05:31:31.899Z,97633.00
2023-03-31T05:33:05.261Z,97630.00
2023-03-31T05:34:40.044Z,97632.00
2023-03-31T05:36:16.816Z,97626.00
2023-03-31T05:37:50.287Z,97617.00
2023-03-31T05:39:23.406Z,97615.00
2023-03-31T05:40:56.931Z,97615.00
2023-03-31T05:42:29.960Z,97611.00
2023-03-31T05:44:03.229Z,97600.00
2023-03-31T05:45:36.279Z,97609.00
2023-03-31T05:47:09.369Z,97594.00
2023-03-31T05:48:42.845Z,97597.00
2023-03-31T05:50:17.365Z,97597.00
2023-03-31T05:51:50.766Z,97588.00
2023-03-31T05:53:24.069Z,97591.00
2023-03-31T05:54:57.083Z,97576.00
2023-03-31T05:56:30.120Z,97581.00
2023-03-31T05:58:03.440Z,97579.00
2023-03-31T05:59:36.538Z,97574.00
2023-03-31T06:01:12.399Z,97570.00
2023-03-31T06:02:45.712Z,97571.00
2023-03-31T06:04:18.981Z,97579.00
2023-03-31T06:05:53.948Z,97573.00
2023-03-31T06:07:27.333Z,97553.00
2023-03-31T06:09:00.677Z,97562.00
2023-03-31T06:10:33.856Z,97556.00
2023-03-31T06:12:08.376Z,97553.00
2023-03-31T06:13:42.184Z,97548.00
2023-03-31T06:15:16.254Z,97551.00
2023-03-31T06:16:49.536Z,97544.00
2023-03-31T06:18:22.647Z,97550.00
2023-03-31T06:19:55.771Z,97548.00
2023-03-31T06:21:30.160Z,97544.00
2023-03-31T06:23:03.250Z,97545.00
2023-03-31T06:24:36.346Z,97539.00
2023-03-31T06:26:09.828Z,97539.00
2023-03-31T06:27:43.494Z,97539.00
2023-03-31T06:29:16.591Z,97551.00
2023-03-31T06:30:49.951Z,97536.00
2023-03-31T06:32:23.070Z,97539.00
2023-03-31T06:33:56.420Z,97539.00
2023-03-31T06:35:29.810Z,97538.00
2023-03-31T06:37:04.394Z,97529.00
2023-03-31T06:38:39.196Z,97533.00
2023-03-31T06:40:13.283Z,97536.00
2023-03-31T06:41:46.365Z,97527.00
2023-03-31T06:43:27.978Z,97529.00
2023-03-31T06:45:01.401Z,97531.00
2023-03-31T06:46:34.810Z,97529.00
2023-03-31T06:48:08.407Z,97526.00
2023-03-31T06:49:41.589Z,97530.00
2023-03-31T06:51:19.168Z,97529.00
2023-03-31T06:52:55.062Z,97524.00
2023-03-31T06:54:28.255Z,97521.00
2023-03-31T06:56:02.018Z,97516.00
2023-03-31T06:57:35.531Z,97513.00
2023-03-31T06:59:08.684Z,97519.00
2023-03-31T07:00:41.790Z,97514.00
2023-03-31T07:02:16.022Z,97514.00
2023-03-31T07:03:49.559Z,97512.00
2023-03-31T07:05:27.232Z,97505.00
2023-03-31T07:07:00.600Z,97511.00
2023-03-31T07:08:36.344Z,97520.00
2023-03-31T07:10:10.048Z,97516.00
2023-03-31T07:11:43.255Z,97520.00
2023-03-31T07:13:17.646Z,97520.00
2023-03-31T07:14:51.806Z,97505.00
2023-03-31T07:16:25.140Z,97512.00
2023-03-31T07:18:02.275Z,97513.00
2023-03-31T07:19:38.013Z,97512.00
2023-03-31T07:21:11.266Z,97515.00
2023-03-31T07:22:46.346Z,97520.00
2023-03-31T07:24:20.942Z,97517.00
2023-03-31T07:25:54.322Z,97515.00
2023-03-31T07:27:27.476Z,97503.00
2023-03-31T07:29:01.047Z,97511.00
2023-03-31T07:30:34.738Z,97503.00
2023-03-31T07:32:07.944Z,97503.00
2023-03-31T07:33:41.647Z,97496.00
2023-03-31T07:35:15.173Z,97504.00
2023-03-31T07:36:48.370Z,97512.00
2023-03-31T07:38:21.564Z,97503.00
2023-03-31T07:39:56.126Z,97496.00
2023-03-31T07:41:29.593Z,97496.00
2023-03-31T07:43:03.218Z,97491.00
2023-03-31T07:44:37.270Z,97492.00
2023-03-31T07:46:17.439Z,97498.00
2023-03-31T07:47:52.214Z,97490.00
2023-03-31T07:49:25.729Z,97480.00
2023-03-31T07:50:58.860Z,97476.00
2023-03-31T07:52:38.019Z,97487.00
2023-03-31T07:54:11.319Z,97476.00
2023-03-31T07:55:46.604Z,97489.00
2023-03-31T07:57:20.416Z,97478.00
2023-03-31T07:58:56.861Z,97477.00
2023-03-31T08:00:31.736Z,97484.00
2023-03-31T08:02:05.121Z,97478.00
2023-03-31T08:03:38.527Z,97480.00
2023-03-31T08:05:13.156Z,97478.00
2023-03-31T08:06:46.372Z,97477.00
2023-03-31T08:08:19.869Z,97477.00
2023-03-31T08:09:53.118Z,97465.00
2023-03-31T08:11:27.838Z,97472.00
2023-03-31T08:13:00.988Z,97466.00
2023-03-31T08:14:41.194Z,97468.00
2023-03-31T08:16:15.006Z,97466.00
2023-03-31T08:17:48.332Z,97466.00
2023-03-31T08:19:22.118Z,97465.00
2023-03-31T08:20:55.259Z,97470.00
2023-03-31T08:22:28.530Z,97464.00
2023-03-31T08:24:01.815Z,97470.00
2023-03-31T08:25:34.885Z,97463.00
2023-03-31T08:27:11.849Z,97465.00
2023-03-31T08:28:46.034Z,97466.00
2023-03-31T08:30:21.578Z,97463.00
2023-03-31T08:31:55.463Z,97466.00
2023-03-31T08:33:28.998Z,97453.00
2023-03-31T08:35:02.627Z,97456.00
2023-03-31T08:36:36.082Z,97451.00
2023-03-31T08:38:09.522Z,97449.00
2023-03-31T08:39:42.968Z,97447.00
2023-03-31T08:41:38.725Z,97447.00
2023-03-31T08:43:23.945Z,97435.00
2023-03-31T08:45:04.125Z,97434.00
2023-03-31T08:46:38.567Z,97445.00
2023-03-31T08:48:25.609Z,97432.00
2023-03-31T08:50:06.628Z,97442.00
2023-03-31T08:51:47.248Z,97427.00
2023-03-31T08:53:25.868Z,97423.00
2023-03-31T08:55:04.560Z,97434.00
2023-03-31T08:56:43.480Z,97425.00
2023-03-31T08:58:35.529Z,97426.00
2023-03-31T09:00:17.464Z,97426.00
2023-03-31T09:02:00.382Z,97416.00
2023-03-31T09:03:45.848Z,97425.00
2023-03-31T09:05:46.116Z,97428.00
2023-03-31T09:07:46.433Z,97435.00
2023-03-31T09:09:38.645Z,97417.00
2023-03-31T09:11:20.197Z,97433.00
2023-03-31T09:13:02.925Z,97428.00
2023-03-31T09:14:42.241Z,97440.00
2023-03-31T09:16:18.985Z,97437.00
2023-03-31T09:17:55.547Z,97426.00
2023-03-31T09:19:39.305Z,97436.00
2023-03-31T09:21:22.018Z,97428.00
2023-03-31T09:23:07.218Z,97422.00
2023-03-31T09:24:53.787Z,97430.00
2023-03-31T09:26:36.949Z,97416.00
2023-03-31T09:28:20.461Z,97415.00
2023-03-31T09:30:00.743Z,97410.00
2023-03-31T09:31:35.429Z,97400.00
2023-03-31T09:33:13.341Z,97402.00
2023-03-31T09:34:48.722Z,97398.00
2023-03-31T09:36:23.890Z,97398.00
2023-03-31T09:37:57.086Z,97393.00
2023-03-31T09:39:30.311Z,97397.00
2023-03-31T09:41:05.331Z,97392.00
2023-03-31T09:42:39.737Z,97388.00
2023-03-31T09:44:25.258Z,97388.00
2023-03-31T09:46:12.624Z,97387.00
2023-03-31T09:47:48.466Z,97391.00
2023-03-31T09:49:24.773Z,97391.00
2023-03-31T09:51:03.515Z,97382.00
2023-03-31T09:52:42.431Z,97384.00
2023-03-31T09:54:25.304Z,97383.00
2023-03-31T09:56:05.294Z,97363.00
2023-03-31T09:57:41.334Z,97367.00
2023-03-31T09:59:18.433Z,97363.00
2023-03-31T10:01:06.303Z,97361.00
2023-03-31T10:02:42.170Z,97362.00
2023-03-31T10:04:24.325Z,97361.00
2023-03-31T10:05:58.836Z,97356.00
2023-03-31T10:07:32.514Z,97356.00
2023-03-31T10:09:06.880Z,97352.00
2023-03-31T10:10:45.743Z,97344.00
2023-03-31T10:12:24.340Z,97357.00
2023-03-31T10:14:03.896Z,97351.00
2023-03-31T10:15:42.080Z,97342.00
2023-03-31T10:17:20.259Z,97348.00
2023-03-31T10:18:53.656Z,97346.00
2023-03-31T10:20:38.028Z,97342.00
2023-03-31T10:22:27.532Z,97331.00
2023-03-31T10:24:02.605Z,97329.00
2023-03-31T10:25:36.390Z,97331.00
2023-03-31T10:27:22.974Z,97318.00
2023-03-31T10:28:56.441Z,97328.00
2023-03-31T10:30:38.040Z,97321.00
2023-03-31T10:32:23.353Z,97320.00
2023-03-31T10:33:58.390Z,97323.00
2023-03-31T10:35:35.275Z,97319.00
2023-03-31T10:37:14.152Z,97321.00
2023-03-31T10:38:49.751Z,97318.00
2023-03-31T10:40:26.401Z,97314.00
2023-03-31T10:42:00.778Z,97316.00
2023-03-31T10:43:41.115Z,97308.00
2023-03-31T10:45:36.455Z,97299.00
2023-03-31T10:47:22.825Z,97299.00
2023-03-31T10:48:56.250Z,97286.00
2023-03-31T10:50:32.488Z,97293.00
2023-03-31T10:52:21.372Z,97297.00
2023-03-31T10:54:03.251Z,97291.00
2023-03-31T10:55:47.188Z,97290.00
2023-03-31T10:57:33.557Z,97292.00
2023-03-31T10:59:32.012Z,97280.00
2023-03-31T11:01:25.129Z,97288.00
2023-03-31T11:03:48.328Z,97284.00
2023-03-31T11:05:32.541Z,97294.00
2023-03-31T11:07:18.332Z,97292.00
2023-03-31T11:09:08.763Z,97290.00
2023-03-31T11:11:07.934Z,97293.00
2023-03-31T11:12:52.853Z,97298.00
2023-03-31T11:14:42.568Z,97284.00
2023-03-31T11:16:25.774Z,97272.00
2023-03-31T11:18:19.201Z,97268.00
2023-03-31T11:20:11.076Z,97263.00
2023-03-31T11:21:59.516Z,97252.00
2023-03-31T11:23:43.327Z,97259.00
2023-03-31T11:25:28.280Z,97254.00
2023-03-31T11:27:25.246Z,97248.00
2023-03-31T11:29:20.925Z,97244.00
2023-03-31T11:31:08.369Z,97254.00
2023-03-31T11:32:59.593Z,97243.00
2023-03-31T11:35:18.223Z,97247.00
2023-03-31T11:37:19.457Z,97257.00
2023-03-31T11:39:11.800Z,97285.00
2023-03-31T11:41:00.672Z,97326.00
2023-03-31T11:42:49.649Z,97368.00
2023-03-31T11:44:26.041Z,97389.00
2023-03-31T11:46:06.404Z,97391.00
2023-03-31T11:47:44.349Z,97385.00
2023-03-31T11:49:23.650Z,97396.00
2023-03-31T11:51:00.156Z,97384.00
2023-03-31T11:52:39.866Z,97374.00
2023-03-31T11:54:21.449Z,97377.00
2023-03-31T11:55:58.372Z,97390.00
2023-03-31T11:57:38.699Z,97383.00
2023-03-31T11:59:17.097Z,97391.00
2023-03-31T12:00:56.533Z,97383.00
2023-03-31T12:02:45.593Z,97387.00
2023-03-31T12:04:34.594Z,97376.00
2023-03-31T12:06:17.553Z,97376.00
2023-03-31T12:08:03.012Z,97365.00
2023-03-31T12:09:49.033Z,97363.00
2023-03-31T12:11:32.795Z,97352.00
2023-03-31T12:13:27.142Z,97353.00
2023-03-31T12:15:15.400Z,97343.00
2023-03-31T12:16:52.524Z,97341.00
2023-03-31T12:18:31.640Z,97333.00
2023-03-31T12:20:14.204Z,97330.00
2023-03-31T12:21:55.681Z,97326.00
2023-03-31T12:23:34.764Z,97312.00
2023-03-31T12:25:14.860Z,97319.00
2023-03-31T12:27:04.442Z,97313.00
2023-03-31T12:28:41.487Z,97306.00
2023-03-31T12:30:21.403Z,97310.00
2023-03-31T12:31:58.655Z,97303.00
2023-03-31T12:33:37.061Z,97301.00
2023-03-31T12:35:23.034Z,97305.00
2023-03-31T12:37:22.215Z,97294.00
2023-03-31T12:39:17.879Z,97291.00
2023-03-31T12:41:07.570Z,97289.00
2023-03-31T12:43:06.863Z,97289.00
2023-03-31T12:44:57.788Z,97295.00
2023-03-31T12:47:03.690Z,97285.00
2023-03-31T12:49:09.748Z,97290.00
2023-03-31T12:50:58.454Z,97284.00
2023-03-31T12:52:51.649Z,97297.00
2023-03-31T12:55:01.089Z,97287.00
2023-03-31T12:57:20.370Z,97280.00
2023-03-31T12:58:53.880Z,97282.00
2023-03-31T13:00:30.202Z,97270.00
2023-03-31T13:02:26.161Z,97272.00
2023-03-31T13:04:22.294Z,97267.00
2023-03-31T13:05:55.419Z,97265.00
2023-03-31T13:07:42.922Z,97265.00
2023-03-31T13:09:48.220Z,97265.00
2023-03-31T13:11:24.290Z,97259.00
2023-03-31T13:13:06.126Z,97263.00
2023-03-31T13:14:42.631Z,97271.00
2023-03-31T13:16:21.623Z,97278.00
2023-03-31T13:18:00.433Z,97281.00
2023-03-31T13:19:36.702Z,97283.00
2023-03-31T13:21:12.195Z,97283.00
2023-03-31T13:22:49.159Z,97294.00
2023-03-31T13:24:24.619Z,97269.00
2023-03-31T13:25:59.664Z,97274.00
2023-03-31T13:27:35.070Z,97268.00
2023-03-31T13:29:21.221Z,97273.00
2023-03-31T13:31:02.027Z,97260.00
2023-03-31T13:32:37.048Z,97261.00
2023-03-31T13:34:10.371Z,97267.00
2023-03-31T13:35:49.126Z,97263.00
2023-03-31T13:37:46.361Z,97245.00
2023-03-31T13:39:53.754Z,97255.00
2023-03-31T13:41:46.206Z,97243.00
2023-03-31T13:43:48.760Z,97255.00
2023-03-31T13:45:51.992Z,97252.00
2023-03-31T13:48:11.579Z,97252.00
2023-03-31T13:50:37.942Z,97266.00
2023-03-31T13:52:12.934Z,97266.00
2023-03-31T13:54:37.828Z,97249.00
2023-03-31T13:56:40.325Z,97246.00
2023-03-31T13:58:34.662Z,97241.00
2023-03-31T14:00:36.434Z,97243.00
2023-03-31T14:02:56.028Z,97248.00
2023-03-31T14:05:13.467Z,97243.00
2023-03-31T14:06:53.185Z,97245.00
2023-03-31T14:08:43.538Z,97246.00
2023-03-31T14:10:31.302Z,97247.00
2023-03-31T14:12:23.227Z,97247.00
2023-03-31T14:14:06.482Z,97240.00
2023-03-31T14:15:46.272Z,97247.00
2023-03-31T14:17:28.101Z,97243.00
2023-03-31T14:19:38.319Z,97252.00
2023-03-31T14:21:25.504Z,97243.00
2023-03-31T14:23:15.407Z,97247.00
2023-03-31T14:25:00.184Z,97239.00
2023-03-31T14:26:55.839Z,97234.00
2023-03-31T14:28:54.084Z,97233.00
2023-03-31T14:30:42.260Z,97229.00
2023-03-31T14:32:32.841Z,97242.00
2023-03-31T14:34:35.187Z,97248.00
2023-03-31T14:36:19.301Z,97243.00
2023-03-31T14:37:53.325Z,97234.00
2023-03-31T14:39:32.167Z,97227.00
2023-03-31T14:41:05.582Z,97228.00
2023-03-31T14:42:41.297Z,97227.00
2023-03-31T14:44:19.164Z,97222.00
2023-03-31T14:46:00.286Z,97213.00
2023-03-31T14:47:33.648Z,97210.00
2023-03-31T14:49:21.878Z,97202.00
2023-03-31T14:50:59.826Z,97208.00
2023-03-31T14:52:35.595Z,97207.00
2023-03-31T14:54:18.347Z,97200.00
2023-03-31T14:56:01.617Z,97209.00
2023-03-31T14:57:38.934Z,97202.00
2023-03-31T14:59:14.034Z,97196.00
2023-03-31T15:00:49.426Z,97196.00
2023-03-31T15:02:33.668Z,97199.00
2023-03-31T15:04:11.931Z,97199.00
2023-03-31T15:05:48.846Z,97196.00
2023-03-31T15:07:24.909Z,97193.00
2023-03-31T15:09:02.377Z,97190.00
2023-03-31T15:10:40.474Z,97190.00
2023-03-31T15:12:16.561Z,97194.00
2023-03-31T15:14:04.586Z,97194.00
2023-03-31T15:15:38.769Z,97189.00
2023-03-31T15:17:21.497Z,97194.00
2023-03-31T15:18:55.566Z,97200.00
2023-03-31T15:20:35.043Z,97191.00
2023-03-31T15:22:16.181Z,97198.00
2023-03-31T15:23:52.234Z,97201.00
2023-03-31T15:25:34.275Z,97186.00
2023-03-31T15:27:14.832Z,97197.00
2023-03-31T15:28:55.247Z,97187.00
2023-03-31T15:30:30.532Z,97184.00
2023-03-31T15:32:09.245Z,97173.00
2023-03-31T15:33:44.118Z,97176.00
2023-03-31T15:35:23.148Z,97177.00
2023-03-31T15:36:58.176Z,97181.00
2023-03-31T15:38:32.746Z,97175.00
2023-03-31T15:40:18.842Z,97169.00
2023-03-31T15:41:52.676Z,97166.00
2023-03-31T15:43:32.199Z,97168.00
2023-03-31T15:45:51.152Z,97173.00
2023-03-31T15:47:29.214Z,97160.00
2023-03-31T15:49:03.870Z,97183.00
2023-03-31T15:50:40.182Z,97183.00
2023-03-31T15:52:29.272Z,97194.00
2023-03-31T15:54:03.134Z,97198.00
2023-03-31T15:57:19.696Z,97223.00
2023-03-31T15:58:59.420Z,97221.00
2023-03-31T16:00:47.269Z,97223.00
2023-03-31T16:02:25.771Z,97244.00
2023-03-31T16:03:59.730Z,97287.00
2023-03-31T16:05:53.658Z,97261.00
2023-03-31T16:07:30.664Z,97258.00
2023-03-31T16:09:08.897Z,97257.00
2023-03-31T16:10:42.640Z,97249.00
2023-03-31T16:12:22.416Z,97248.00
2023-03-31T16:14:02.036Z,97246.00
2023-03-31T16:15:43.821Z,97248.00
2023-03-31T16:17:26.430Z,97239.00
2023-03-31T16:19:06.651Z,97236.00
2023-03-31T16:20:46.787Z,97241.00
2023-03-31T16:22:27.652Z,97236.00
2023-03-31T16:24:01.348Z,97241.00
2023-03-31T16:25:41.818Z,97227.00
2023-03-31T16:27:15.717Z,97240.00
2023-03-31T16:28:53.966Z,97233.00
2023-03-31T16:30:37.262Z,97246.00
2023-03-31T16:32:15.398Z,97235.00
2023-03-31T16:33:58.817Z,97237.00
2023-03-31T16:35:34.458Z,97227.00
2023-03-31T16:37:11.437Z,97225.00
2023-03-31T16:38:45.274Z,97224.00
2023-03-31T16:40:18.469Z,97219.00
2023-03-31T16:41:51.632Z,97226.00
2023-03-31T16:43:27.598Z,97223.00
2023-03-31T16:45:13.823Z,97221.00
2023-03-31T16:46:47.976Z,97218.00
2023-03-31T16:48:23.965Z,97220.00
2023-03-31T16:49:57.092Z,97213.00
2023-03-31T16:51:30.348Z,97208.00
2023-03-31T16:53:04.992Z,97201.00
2023-03-31T16:54:38.036Z,97195.00
2023-03-31T16:56:12.727Z,97201.00
2023-03-31T16:57:46.027Z,97197.00
2023-03-31T16:59:19.394Z,97198.00
2023-03-31T17:00:54.185Z,97194.00
2023-03-31T17:02:27.253Z,97192.00
2023-03-31T17:04:00.440Z,97190.00
2023-03-31T17:05:39.383Z,97189.00
2023-03-31T17:07:12.789Z,97193.00
2023-03-31T17:08:47.379Z,97183.00
2023-03-31T17:10:20.872Z,97197.00
2023-03-31T17:11:54.156Z,97192.00
2023-03-31T17:13:27.388Z,97191.00
2023-03-31T17:15:00.665Z,97188.00
2023-03-31T17:16:47.324Z,97186.00
2023-03-31T17:18:21.673Z,97194.00
2023-03-31T17:19:54.755Z,97182.00
2023-03-31T17:21:29.176Z,97200.00
2023-03-31T17:23:02.486Z,97192.00
2023-03-31T17:24:37.278Z,97192.00
2023-03-31T17:26:12.549Z,97193.00
2023-03-31T17:27:46.380Z,97190.00
2023-03-31T17:29:19.621Z,97187.00
2023-03-31T17:30:53.477Z,97193.00
2023-03-31T17:32:27.597Z,97196.00
2023-03-31T17:34:01.622Z,97197.00
2023-03-31T17:35:34.712Z,97191.00
2023-03-31T17:37:08.279Z,97192.00
2023-03-31T17:38:41.836Z,97197.00
2023-03-31T17:40:16.560Z,97190.00
2023-03-31T17:41:49.839Z,97192.00
2023-03-31T17:43:23.193Z,97196.00
2023-03-31T17:44:56.211Z,97190.00
2023-03-31T17:46:29.298Z,97188.00
2023-03-31T17:48:03.159Z,97194.00
2023-03-31T17:49:36.268Z,97189.00
2023-03-31T17:51:14.096Z,97186.00
2023-03-31T17:52:47.268Z,97183.00
2023-03-31T17:54:20.398Z,97190.00
2023-03-31T17:55:55.577Z,97183.00
2023-03-31T17:57:28.990Z,97187.00
2023-03-31T17:59:02.235Z,97185.00
2023-03-31T18:00:35.485Z,97186.00
2023-03-31T18:02:12.115Z,97194.00
2023-03-31T18:03:46.224Z,97192.00
2023-03-31T18:05:20.655Z,97189.00
2023-03-31T18:06:54.579Z,97192.00
2023-03-31T18:08:27.890Z,97197.00
2023-03-31T18:10:01.733Z,97194.00
2023-03-31T18:11:37.233Z,97199.00
2023-03-31T18:13:11.424Z,97193.00
2023-03-31T18:14:44.511Z,97198.00
2023-03-31T18:16:18.232Z,97198.00
2023-03-31T18:17:51.372Z,97203.00
2023-03-31T18:19:24.547Z,97202.00
2023-03-31T18:20:57.766Z,97201.00
2023-03-31T18:22:31.132Z,97222.00
2023-03-31T18:24:04.750Z,97212.00
2023-03-31T18:25:38.363Z,97209.00
2023-03-31T18:27:12.904Z,97205.00
2023-03-31T18:28:46.608Z,97212.00
2023-03-31T18:30:20.201Z,97217.00
2023-03-31T18:31:53.349Z,97209.00
2023-03-31T18:33:27.133Z,97223.00
2023-03-31T18:35:00.234Z,97217.00
2023-03-31T18:36:34.067Z,97225.00
2023-03-31T18:38:07.678Z,97215.00
2023-03-31T18:39:40.789Z,97228.00
2023-03-31T18:41:14.307Z,97211.00
2023-03-31T18:42:48.823Z,97209.00
2023-03-31T18:44:22.639Z,97218.00
2023-03-31T18:45:58.534Z,97212.00
2023-03-31T18:47:31.691Z,97223.00
2023-03-31T18:49:05.694Z,97221.00
2023-03-31T18:50:38.727Z,97227.00
2023-03-31T18:52:11.843Z,97223.00
2023-03-31T18:53:44.908Z,97218.00
2023-03-31T18:55:18.417Z,97225.00
2023-03-31T18:56:51.547Z,97212.00
2023-03-31T18:58:27.841Z,97229.00
2023-03-31T19:00:01.554Z,97228.00
2023-03-31T19:01:37.376Z,97223.00
2023-03-31T19:03:10.723Z,97224.00
2023-03-31T19:04:44.136Z,97231.00
2023-03-31T19:06:20.987Z,97230.00
2023-03-31T19:07:54.457Z,97221.00
2023-03-31T19:09:27.985Z,97227.00
2023-03-31T19:11:08.068Z,97226.00
2023-03-31T19:12:41.369Z,97226.00
2023-03-31T19:14:17.143Z,97228.00
2023-03-31T19:15:50.863Z,97233.00
2023-03-31T19:17:24.213Z,97225.00
2023-03-31T19:18:57.447Z,97224.00
2023-03-31T19:20:30.725Z,97233.00
2023-03-31T19:22:04.022Z,97231.00
2023-03-31T19:23:37.274Z,97229.00
2023-03-31T19:25:10.881Z,97230.00
2023-03-31T19:26:44.481Z,97223.00
2023-03-31T19:28:18.269Z,97238.00